Česky Dansk Deutsch English Español Suomi Français Magyar Italiano Nederlands norsk Polski Português svenska Türkçe

 

Het Weer

Andoya (Noorwegen)

06:20, 11 augustus 2016 (CET)

 
WE
 
Home            
Andoya Evenes Storkmarknes / Skagen Bardufoss Narvik Iii Tromso / Langnes Svolvaer / Helle Leknes Sorkjosen Kiruna Airport Bodo Vi Rost Flyplass Hasvik Kautokeino Alta Lufthavn Gallivare Enontekio Hammerfest Jokkmokk Mo I Rana / Rossvoll Banak Kittila Sandnessjoen / Stokka

Om een weerknop op uw website of weblog te plaatsen, copieer onderstaande code en plak die in uw pagina. In het eerste vakje staat HTML-code, in het tweede vakje UBB-code.


Add to Google

Details

Wind speed:2 bf, 5 kn, 2.6 m/s, 5.8 miles/h, 9.3 km/h
Wind direction:E, 080°
Visibility:Greater than 10000 m, 10 km, 32800 ft, 6.2 miles
Clouds:CAVOC
Temperature:7°C, 45°F
Dew-point:6°C, 43°F
Atmospheric pressure:1007 hPa, 755.3 mmHg, 29.74 inHg, 0.994 atm
Relative humidity:93.3 %
METAR:ENAN 110420Z 08005KT CAVOK 07/06 Q1007

Snelkoppelingen

Actuele weersinformatie van de hele wereld. Voeg locaties toe met het plus (+) symbool. Deze snelkoppelingen kunnen worden toegevoegd aan Google.

Lid van de Technetium groep

website free tracking
StatCounter NetStat W3C Validator

26-05-2018 02:03:21
astro.technetium.be money.technetium.be phote.technetium.be tafeltennistafel.technetium.be www.ligfiets.net